Terminal Aerodrome Forecast
Issued by NWS

Home | Current Version | Previous Version | Text Only | Print | Product List | Glossary On
Versions: 1 2 3 4 5 6 7 8 9 10 11 12 13 14 15 16 17 18 19 20 21 22 23 24 25 26 27 28 29 30 31 32 33 34
000
FTUS44 KBMX 161329 AAA
TAFTCL
TAF AMD
KTCL 161329Z 1613/1712 18003KT P6SM OVC006
      TEMPO 1614/1615 BKN009
     FM161500 20003KT P6SM BKN025 BKN070
     FM161800 23007KT P6SM VCTS SCT025CB BKN040
     FM170300 21005KT P6SM BKN050 OVC250
     FM170900 20001KT 4SM BR OVC007=

USA.gov is the U.S. government's official web portal to all federal, state and local government web resources and services.